Time;durP1;ratioP1;P1;durP2;ratioP2;P2;SDS_P1;SDS_P2;PMS_P1;PMS_P2;Temp;Humidity;BMP_temperature;BMP_pressure;BME280_temperature;BME280_humidity;BME280_pressure;Samples;Min_cycle;Max_cycle;Signal;HPM_P1;HPM_P2
2022/08/10 00:02:19;;;;;;;6.13;5.53;;;;;;;23.63;42.41;95075.91;4980998;28;20364;-68
2022/08/10 00:04:45;;;;;;;5.93;5.20;;;;;;;23.59;42.40;95072.88;4983356;28;20230;-67
2022/08/10 00:07:10;;;;;;;6.20;5.70;;;;;;;23.47;43.16;95069.34;4986750;28;20246;-67
2022/08/10 00:09:36;;;;;;;5.85;5.35;;;;;;;23.29;43.67;95071.06;4975840;28;20223;-67
2022/08/10 00:12:01;;;;;;;6.13;5.60;;;;;;;23.22;43.67;95061.47;4981032;28;20216;-67
2022/08/10 00:14:26;;;;;;;5.47;5.07;;;;;;;23.18;43.94;95071.88;4985929;28;20206;-67
2022/08/10 00:16:52;;;;;;;6.00;5.25;;;;;;;23.17;44.07;95072.88;4978288;28;20211;-67
2022/08/10 00:19:17;;;;;;;5.80;5.30;;;;;;;23.35;43.45;95077.38;5006373;28;20227;-66
2022/08/10 00:21:43;;;;;;;5.90;4.78;;;;;;;23.18;44.07;95079.91;4994612;28;20239;-66
2022/08/10 00:24:09;;;;;;;8.00;5.68;;;;;;;23.23;43.90;95068.47;4988768;28;20488;-67
2022/08/10 00:26:34;;;;;;;6.20;5.60;;;;;;;23.19;44.30;95062.75;4994653;28;20227;-67
2022/08/10 00:28:59;;;;;;;8.07;5.45;;;;;;;23.11;44.42;95066.56;4987211;28;20228;-68
2022/08/10 00:31:25;;;;;;;10.55;5.68;;;;;;;23.13;44.32;95071.72;4980305;28;20232;-68
2022/08/10 00:33:50;;;;;;;6.18;5.38;;;;;;;23.00;44.66;95058.50;4992393;28;20261;-67
2022/08/10 00:36:16;;;;;;;5.82;5.30;;;;;;;23.11;44.31;95055.03;4997388;28;20223;-67
2022/08/10 00:38:41;;;;;;;6.68;5.55;;;;;;;23.18;44.22;95060.31;4994300;28;20253;-67
2022/08/10 00:41:07;;;;;;;6.45;5.47;;;;;;;23.18;44.43;95061.13;5006724;28;20203;-68
2022/08/10 00:43:32;;;;;;;6.88;5.50;;;;;;;23.09;44.70;95065.16;4990967;28;20294;-67
2022/08/10 00:45:58;;;;;;;6.15;5.50;;;;;;;22.98;45.11;95072.13;5018211;28;20251;-67
2022/08/10 00:48:23;;;;;;;6.03;5.47;;;;;;;22.92;45.60;95074.88;4984178;28;20227;-67
2022/08/10 00:50:49;;;;;;;8.75;6.03;;;;;;;22.77;45.81;95077.97;4986576;28;20705;-68
2022/08/10 00:53:14;;;;;;;6.30;5.70;;;;;;;22.82;45.75;95068.19;4989349;28;20258;-68
2022/08/10 00:55:40;;;;;;;5.97;5.47;;;;;;;22.83;45.91;95071.72;4991477;28;20220;-67
2022/08/10 00:58:07;;;;;;;6.20;5.60;;;;;;;22.76;46.18;95068.28;5009339;28;20228;-69
2022/08/10 01:00:32;;;;;;;5.97;5.38;;;;;;;22.73;45.89;95074.91;5006381;28;20225;-67
2022/08/10 01:02:58;;;;;;;7.20;5.55;;;;;;;22.71;45.92;95073.50;5001525;28;20212;-69
2022/08/10 01:05:23;;;;;;;6.63;5.75;;;;;;;22.79;45.54;95065.16;4986860;28;20217;-67
2022/08/10 01:07:59;;;;;;;6.78;5.80;;;;;;;22.81;45.38;95066.56;4993500;28;20215;-68
2022/08/10 01:10:35;;;;;;;7.20;5.40;;;;;;;22.62;46.18;95065.78;4977846;28;20226;-67
2022/08/10 01:13:12;;;;;;;6.18;5.68;;;;;;;22.68;45.68;95072.09;5010203;28;20219;-67
2022/08/10 01:16:28;;;;;;;6.22;5.63;;;;;;;22.84;45.25;95066.09;5001674;28;20229;-68
2022/08/10 01:19:17;;;;;;;5.50;4.95;;;;;;;22.93;45.03;95068.47;4983523;28;20226;-67
2022/08/10 01:22:13;;;;;;;7.45;5.68;;;;;;;22.95;45.17;95069.06;4966232;28;20250;-68
2022/08/10 01:25:20;;;;;;;6.28;5.68;;;;;;;22.84;45.06;95070.66;4982764;28;20234;-66
2022/08/10 01:27:55;;;;;;;6.28;5.68;;;;;;;22.88;44.77;95078.03;4982033;28;20223;-68
2022/08/10 01:30:23;;;;;;;5.70;5.20;;;;;;;22.84;44.52;95070.66;4970281;28;20230;-67
2022/08/10 01:33:03;;;;;;;5.65;5.15;;;;;;;22.71;44.95;95071.63;4966176;28;20222;-67
2022/08/10 01:35:37;;;;;;;5.55;5.05;;;;;;;22.67;44.66;95071.28;4986332;28;20232;-67
2022/08/10 01:38:09;;;;;;;5.40;4.90;;;;;;;22.60;44.71;95069.72;4970126;28;20332;-67
2022/08/10 01:40:42;;;;;;;6.20;5.60;;;;;;;22.63;45.12;95069.28;4985564;28;20329;-67
2022/08/10 01:43:12;;;;;;;5.68;5.00;;;;;;;22.64;45.25;95060.19;4982584;28;20230;-67
2022/08/10 01:45:42;;;;;;;6.10;5.60;;;;;;;22.66;44.90;95063.47;4987204;28;20398;-67
2022/08/10 01:48:27;;;;;;;5.68;4.95;;;;;;;22.64;45.04;95061.03;4986872;28;20609;-67
2022/08/10 01:50:59;;;;;;;5.93;5.40;;;;;;;22.58;45.56;95063.75;4995410;28;20242;-67
2022/08/10 01:53:32;;;;;;;5.38;4.88;;;;;;;22.54;45.32;95066.09;4985958;28;20211;-66
2022/08/10 01:56:00;;;;;;;5.72;5.32;;;;;;;22.50;45.43;95064.88;4976576;28;20208;-67
2022/08/10 01:58:28;;;;;;;5.60;5.07;;;;;;;22.52;45.77;95056.63;5005660;28;20257;-68
2022/08/10 02:00:54;;;;;;;6.00;5.40;;;;;;;22.47;45.56;95057.31;5006155;28;20230;-67
2022/08/10 02:03:23;;;;;;;6.18;5.57;;;;;;;22.47;45.32;95062.66;5004220;28;20227;-67
2022/08/10 02:05:53;;;;;;;6.97;5.53;;;;;;;22.46;45.47;95055.69;5000184;28;20317;-67
2022/08/10 02:08:21;;;;;;;6.13;5.25;;;;;;;22.41;45.70;95050.97;5001799;28;20219;-67
2022/08/10 02:10:48;;;;;;;6.70;5.32;;;;;;;22.43;45.51;95058.81;4992789;28;20222;-67
2022/08/10 02:13:16;;;;;;;5.35;4.85;;;;;;;22.35;46.03;95057.25;4988867;28;20212;-67
2022/08/10 02:15:44;;;;;;;6.25;5.65;;;;;;;22.38;46.32;95047.94;4982869;28;20223;-67
2022/08/10 02:18:11;;;;;;;6.10;5.50;;;;;;;22.35;46.95;95051.06;4986401;28;20246;-67
2022/08/10 02:20:42;;;;;;;6.40;5.40;;;;;;;22.34;47.14;95047.56;4982883;28;20227;-67
2022/08/10 02:23:14;;;;;;;8.02;5.63;;;;;;;22.33;47.21;95055.84;4978015;28;20200;-68
2022/08/10 02:25:41;;;;;;;6.15;5.65;;;;;;;22.26;47.42;95055.91;4985314;28;20255;-69
2022/08/10 02:28:07;;;;;;;6.45;5.47;;;;;;;22.35;47.03;95051.06;4990807;28;20234;-67
2022/08/10 02:30:35;;;;;;;6.45;5.40;;;;;;;22.28;47.77;95061.84;4990186;28;20250;-68
2022/08/10 02:33:02;;;;;;;6.50;5.47;;;;;;;22.34;47.80;95052.91;5004996;28;20316;-67
2022/08/10 02:35:28;;;;;;;6.28;5.68;;;;;;;22.30;47.63;95059.78;5002076;28;20226;-67
2022/08/10 02:37:58;;;;;;;6.63;5.68;;;;;;;22.32;47.72;95063.06;4983773;28;20299;-68
2022/08/10 02:40:27;;;;;;;5.47;5.03;;;;;;;22.19;48.13;95065.88;4974057;28;20263;-67
2022/08/10 02:43:17;;;;;;;6.00;5.43;;;;;;;22.09;48.68;95070.91;4974946;28;20231;-67
2022/08/10 02:45:47;;;;;;;6.18;5.57;;;;;;;22.01;49.15;95072.81;4983578;28;20232;-67
2022/08/10 02:48:23;;;;;;;7.18;5.93;;;;;;;22.12;48.95;95067.78;4980738;28;20670;-67
2022/08/10 02:51:00;;;;;;;6.47;5.88;;;;;;;22.05;49.27;95067.00;4975466;28;20227;-66
2022/08/10 02:53:47;;;;;;;6.60;6.00;;;;;;;22.12;48.89;95067.78;4981110;28;20226;-67
2022/08/10 02:56:27;;;;;;;6.15;5.57;;;;;;;22.12;48.83;95055.19;4987679;28;20242;-67
2022/08/10 02:59:04;;;;;;;6.93;5.72;;;;;;;21.97;49.68;95060.94;4982841;28;20207;-67
2022/08/10 03:01:32;;;;;;;6.93;6.30;;;;;;;21.92;49.97;95068.81;5000115;28;20211;-67
2022/08/10 03:04:02;;;;;;;7.03;6.43;;;;;;;22.00;50.02;95076.53;5008868;28;20215;-67
2022/08/10 03:06:34;;;;;;;6.50;5.93;;;;;;;22.05;49.99;95073.19;4998148;28;20270;-67
2022/08/10 03:09:02;;;;;;;7.57;5.93;;;;;;;22.11;49.65;95076.84;4983650;28;20228;-67
2022/08/10 03:11:32;;;;;;;9.00;6.22;;;;;;;22.02;49.73;95074.47;4980401;28;20211;-66
2022/08/10 03:14:00;;;;;;;6.35;5.78;;;;;;;21.96;49.72;95074.53;4975656;28;20260;-67
2022/08/10 03:16:27;;;;;;;6.75;6.03;;;;;;;21.92;49.85;95076.84;4977199;28;20294;-67
2022/08/10 03:18:55;;;;;;;6.75;6.25;;;;;;;21.93;49.80;95080.31;4984068;28;20319;-69
2022/08/10 03:21:22;;;;;;;6.88;6.18;;;;;;;21.95;49.78;95079.06;4990338;28;20243;-68
2022/08/10 03:23:50;;;;;;;6.90;6.25;;;;;;;21.85;50.12;95078.75;4984960;28;20246;-68
2022/08/10 03:26:16;;;;;;;6.65;6.15;;;;;;;21.92;49.94;95078.66;4976809;28;20466;-68
2022/08/10 03:28:42;;;;;;;6.93;5.78;;;;;;;21.95;49.69;95079.06;4983069;28;20225;-68
2022/08/10 03:31:08;;;;;;;7.18;6.32;;;;;;;21.90;50.03;95086.94;5001789;28;20223;-67
2022/08/10 03:33:38;;;;;;;6.85;6.25;;;;;;;21.80;50.08;95086.63;5007939;28;20230;-67
2022/08/10 03:36:05;;;;;;;9.05;6.32;;;;;;;21.82;49.79;95081.88;5007717;28;20243;-67
2022/08/10 03:38:31;;;;;;;6.65;6.10;;;;;;;21.83;49.55;95083.50;5009763;28;20301;-67
2022/08/10 03:41:00;;;;;;;6.63;6.03;;;;;;;21.92;49.34;95087.53;4987865;28;20215;-67
2022/08/10 03:43:27;;;;;;;6.57;5.72;;;;;;;21.89;49.35;95095.19;4979975;28;20317;-67
2022/08/10 03:45:56;;;;;;;6.72;6.18;;;;;;;21.82;49.64;95091.75;4999674;28;20227;-67
2022/08/10 03:48:23;;;;;;;7.00;6.30;;;;;;;21.68;50.00;95093.72;4998423;28;20361;-68
2022/08/10 03:50:50;;;;;;;7.22;6.05;;;;;;;21.57;50.70;95098.75;5010721;28;20227;-68
2022/08/10 03:53:16;;;;;;;7.25;6.05;;;;;;;21.61;50.57;95096.47;5012385;28;20372;-68
2022/08/10 03:55:43;;;;;;;9.48;8.57;;;;;;;21.61;50.59;95098.31;4985459;28;20200;-68
2022/08/10 03:58:09;;;;;;;7.13;6.53;;;;;;;21.61;50.24;95092.97;5007217;28;20230;-67
2022/08/10 04:00:36;;;;;;;7.75;6.47;;;;;;;21.67;50.18;95098.25;4993049;28;20224;-68
2022/08/10 04:03:06;;;;;;;9.45;6.30;;;;;;;21.57;50.55;95095.25;4992505;28;20241;-67
2022/08/10 04:05:32;;;;;;;7.40;6.50;;;;;;;21.58;50.27;95104.91;5004728;28;20230;-67
2022/08/10 04:07:59;;;;;;;8.40;6.68;;;;;;;21.71;50.53;95102.13;5024661;28;20296;-67
2022/08/10 04:10:28;;;;;;;6.60;5.97;;;;;;;21.74;50.52;95111.59;4988912;28;20641;-67
2022/08/10 04:12:54;;;;;;;7.80;6.40;;;;;;;21.82;50.50;95099.78;5001117;28;20259;-68
2022/08/10 04:15:19;;;;;;;7.28;6.53;;;;;;;21.90;50.32;95111.03;4991757;28;20258;-67
2022/08/10 04:17:45;;;;;;;6.55;5.90;;;;;;;21.74;51.00;95100.88;4990757;28;20223;-67
2022/08/10 04:20:24;;;;;;;7.97;6.82;;;;;;;21.86;50.58;95107.13;5006938;28;20344;-68
2022/08/10 04:22:52;;;;;;;6.85;6.25;;;;;;;21.82;50.61;95111.31;4986948;28;20212;-67
2022/08/10 04:25:19;;;;;;;8.40;7.60;;;;;;;21.87;50.72;95116.00;4991735;28;20270;-67
2022/08/10 04:27:46;;;;;;;7.78;6.22;;;;;;;21.96;50.10;95110.13;5003042;28;20230;-68
2022/08/10 04:30:11;;;;;;;6.40;5.57;;;;;;;21.97;49.97;95110.94;5013168;28;20227;-68
2022/08/10 04:32:39;;;;;;;9.20;6.30;;;;;;;22.07;49.97;95113.94;4993811;28;20323;-67
2022/08/10 04:35:08;;;;;;;7.38;6.13;;;;;;;22.06;50.26;95111.50;4986486;28;20326;-67
2022/08/10 04:37:36;;;;;;;6.93;6.28;;;;;;;22.15;50.12;95108.31;4986781;28;20334;-66
2022/08/10 04:40:03;;;;;;;9.02;6.95;;;;;;;22.09;50.84;95117.22;5001416;28;20246;-67
2022/08/10 04:42:30;;;;;;;8.73;6.65;;;;;;;22.01;51.00;95115.66;5004943;28;20223;-67
2022/08/10 04:44:56;;;;;;;8.32;7.03;;;;;;;22.17;51.12;95114.25;4994146;28;20339;-67
2022/08/10 04:47:21;;;;;;;6.75;6.18;;;;;;;22.66;50.32;95109.03;4987937;28;20267;-67
2022/08/10 04:49:47;;;;;;;8.15;7.32;;;;;;;22.61;50.05;95101.69;4983460;28;20218;-67
2022/08/10 04:52:13;;;;;;;7.57;6.80;;;;;;;22.35;51.01;95108.16;4982878;28;20296;-64
2022/08/10 04:54:38;;;;;;;7.80;6.82;;;;;;;22.41;51.21;95111.78;4975811;28;20239;-65
2022/08/10 04:57:04;;;;;;;8.13;6.72;;;;;;;22.29;51.89;95111.69;4983976;28;20220;-67
2022/08/10 04:59:30;;;;;;;7.47;6.78;;;;;;;22.23;52.16;95112.59;5000893;28;20227;-65
2022/08/10 05:01:55;;;;;;;7.38;6.78;;;;;;;22.29;52.01;95110.88;4979952;28;20223;-64
2022/08/10 05:04:20;;;;;;;7.30;6.70;;;;;;;22.42;51.94;95119.59;5010956;28;20226;-64
2022/08/10 05:06:46;;;;;;;7.78;7.00;;;;;;;22.49;51.89;95113.34;4977711;28;20254;-64
2022/08/10 05:09:11;;;;;;;10.02;8.38;;;;;;;22.35;51.94;95113.50;4980212;28;20227;-63
2022/08/10 05:11:37;;;;;;;7.88;7.28;;;;;;;22.37;52.34;95116.78;4979153;28;20234;-64
2022/08/10 05:14:02;;;;;;;8.65;7.80;;;;;;;22.33;52.67;95112.09;4992446;28;20211;-64
2022/08/10 05:16:28;;;;;;;8.00;7.30;;;;;;;22.44;52.32;95111.34;4988019;28;20578;-64
2022/08/10 05:18:53;;;;;;;9.07;7.32;;;;;;;22.47;52.49;95105.53;4969136;28;20273;-65
2022/08/10 05:21:18;;;;;;;10.20;7.93;;;;;;;22.53;52.66;95106.50;4979219;28;20223;-64
2022/08/10 05:23:44;;;;;;;8.85;7.90;;;;;;;22.50;52.69;95101.59;4992745;28;20214;-63
2022/08/10 05:26:09;;;;;;;8.20;7.50;;;;;;;22.60;52.43;95107.25;4989562;28;20207;-65
2022/08/10 05:28:35;;;;;;;8.05;7.25;;;;;;;22.65;52.67;95105.53;4987594;28;20207;-64
2022/08/10 05:31:00;;;;;;;9.27;7.38;;;;;;;22.54;52.97;95102.78;4985647;28;20231;-64
2022/08/10 05:33:26;;;;;;;8.18;7.45;;;;;;;22.57;52.86;95108.50;4985899;28;20238;-64
2022/08/10 05:35:51;;;;;;;8.85;7.97;;;;;;;22.79;52.43;95100.00;4989162;28;20227;-63
2022/08/10 05:38:19;;;;;;;8.93;7.88;;;;;;;22.67;52.92;95113.34;4985357;28;20266;-67
2022/08/10 05:40:45;;;;;;;9.02;8.23;;;;;;;22.63;53.10;95112.97;4984771;28;20274;-64
2022/08/10 05:43:11;;;;;;;9.00;8.20;;;;;;;22.61;53.16;95116.91;4974224;28;20314;-66
2022/08/10 05:45:36;;;;;;;8.70;7.80;;;;;;;22.67;53.19;95108.00;4980123;28;20326;-66
2022/08/10 05:48:02;;;;;;;10.23;9.10;;;;;;;22.70;53.13;95109.41;5003808;28;20218;-66
2022/08/10 05:50:33;;;;;;;12.45;9.27;;;;;;;22.72;53.38;95124.22;5003165;28;20221;-67
2022/08/10 05:52:59;;;;;;;10.73;9.68;;;;;;;22.72;53.21;95115.34;5003499;28;20202;-68
2022/08/10 05:55:28;;;;;;;11.27;8.82;;;;;;;22.90;52.93;95108.09;5006694;28;20229;-66
2022/08/10 05:57:54;;;;;;;10.13;9.15;;;;;;;22.95;52.87;95114.66;5007856;28;20226;-64
2022/08/10 06:00:24;;;;;;;10.00;9.13;;;;;;;23.03;52.39;95115.19;5004904;28;20219;-65
2022/08/10 06:02:55;;;;;;;9.85;8.90;;;;;;;23.01;52.45;95119.13;4996859;28;20235;-66
2022/08/10 06:05:24;;;;;;;9.73;8.20;;;;;;;22.97;52.87;95120.63;4983200;28;20302;-64
2022/08/10 06:08:14;;;;;;;10.30;9.15;;;;;;;23.09;52.35;95124.16;4986903;28;20287;-65
2022/08/10 06:10:42;;;;;;;9.95;8.93;;;;;;;23.14;52.31;95112.78;5005541;28;20258;-65
2022/08/10 06:15:54;;;;;;;9.88;9.02;;;;;;;23.30;52.29;95117.50;4975054;28;20234;-64
2022/08/10 06:18:21;;;;;;;10.25;9.25;;;;;;;23.42;52.17;95117.53;4980135;28;20218;-66
2022/08/10 06:20:48;;;;;;;9.50;8.60;;;;;;;23.48;51.69;95114.75;4981191;28;20236;-64
2022/08/10 06:23:14;;;;;;;11.13;10.23;;;;;;;23.60;51.41;95117.44;4978437;28;20417;-64
2022/08/10 06:25:40;;;;;;;10.65;9.57;;;;;;;23.62;50.85;95112.66;4979400;28;20203;-66
2022/08/10 06:28:10;;;;;;;10.07;9.20;;;;;;;23.60;49.92;95119.31;4972447;28;20402;-66
2022/08/10 06:30:38;;;;;;;10.77;9.77;;;;;;;23.74;50.14;95113.53;4984644;28;20235;-64
2022/08/10 06:33:06;;;;;;;11.30;10.20;;;;;;;23.67;50.18;95118.16;4977316;28;20302;-64
2022/08/10 06:35:33;;;;;;;11.82;10.70;;;;;;;23.76;49.84;95126.72;4977053;28;20296;-66
2022/08/10 06:38:01;;;;;;;10.68;9.85;;;;;;;23.69;50.67;95131.38;5001512;28;20357;-64
2022/08/10 06:40:36;;;;;;;11.65;10.70;;;;;;;23.56;50.89;95132.38;4976584;28;20219;-66
2022/08/10 06:43:14;;;;;;;10.93;10.00;;;;;;;23.63;50.55;95125.06;4975827;28;20243;-64
2022/08/10 06:45:47;;;;;;;10.88;9.88;;;;;;;23.73;50.69;95135.25;4987955;28;20337;-62
2022/08/10 06:48:44;;;;;;;11.48;10.52;;;;;;;23.80;50.50;95119.03;4988229;28;20235;-65
2022/08/10 06:51:19;;;;;;;12.07;11.00;;;;;;;23.84;50.45;95121.00;4992283;28;20276;-64
2022/08/10 06:53:48;;;;;;;11.25;10.15;;;;;;;23.97;50.03;95120.78;4987475;28;20242;-66
2022/08/10 06:56:18;;;;;;;11.18;10.27;;;;;;;23.93;49.91;95132.25;4987845;28;20203;-65
2022/08/10 06:58:49;;;;;;;11.57;10.57;;;;;;;23.94;49.41;95131.19;4994674;28;20200;-68
2022/08/10 07:01:19;;;;;;;12.15;11.05;;;;;;;24.02;49.21;95130.84;4983817;28;20229;-66
2022/08/10 07:03:56;;;;;;;12.90;11.30;;;;;;;24.00;49.90;95116.81;4983302;28;20226;-67
2022/08/10 07:06:23;;;;;;;12.15;11.13;;;;;;;24.12;49.55;95127.59;4994847;28;20218;-67
2022/08/10 07:08:50;;;;;;;10.75;9.75;;;;;;;24.21;47.92;95118.09;4999721;28;20241;-65
2022/08/10 07:11:18;;;;;;;11.73;10.73;;;;;;;24.25;48.51;95118.47;5010768;28;20320;-64
2022/08/10 07:13:45;;;;;;;12.60;10.32;;;;;;;24.35;47.74;95116.84;4990588;28;20218;-65
2022/08/10 07:16:12;;;;;;;10.65;9.85;;;;;;;24.41;47.81;95118.56;5011391;28;20355;-63
2022/08/10 07:18:40;;;;;;;10.70;9.70;;;;;;;24.35;47.55;95119.53;5006200;28;20219;-64
2022/08/10 07:21:07;;;;;;;11.40;10.38;;;;;;;24.47;46.94;95110.66;5007450;28;20275;-69
2022/08/10 07:23:34;;;;;;;11.00;9.93;;;;;;;24.43;46.47;95110.25;4999604;28;20245;-64
2022/08/10 07:26:00;;;;;;;11.15;9.40;;;;;;;24.43;46.32;95110.25;5015800;28;20210;-64
2022/08/10 07:28:28;;;;;;;10.57;9.65;;;;;;;24.70;46.42;95115.16;4987493;28;20235;-63
2022/08/10 07:30:56;;;;;;;10.88;9.82;;;;;;;24.76;46.29;95108.84;5014172;28;20230;-65
2022/08/10 07:33:23;;;;;;;10.13;9.27;;;;;;;24.83;45.66;95120.25;4993487;28;20251;-64
2022/08/10 07:35:49;;;;;;;9.43;8.70;;;;;;;24.85;45.03;95115.47;5004832;28;20227;-63
2022/08/10 07:38:18;;;;;;;9.25;8.35;;;;;;;24.93;43.76;95112.41;4990832;28;20234;-63
2022/08/10 07:40:46;;;;;;;12.45;8.75;;;;;;;25.03;43.84;95109.09;5014182;28;20190;-63
2022/08/10 07:43:14;;;;;;;10.02;9.02;;;;;;;25.08;44.60;95114.56;4994894;28;20219;-66
2022/08/10 07:45:40;;;;;;;10.07;9.27;;;;;;;25.12;43.86;95104.16;4988759;28;20291;-65
2022/08/10 07:48:14;;;;;;;9.23;8.50;;;;;;;25.14;43.90;95112.78;4994778;28;20339;-64
2022/08/10 07:50:41;;;;;;;12.68;9.45;;;;;;;25.08;44.31;95107.31;4986934;28;20227;-63
2022/08/10 07:53:11;;;;;;;12.13;11.23;;;;;;;25.13;45.43;95109.28;4993082;28;20739;-63
2022/08/10 07:55:42;;;;;;;12.18;11.18;;;;;;;25.10;45.24;95099.03;4974463;28;20385;-64
2022/08/10 07:58:10;;;;;;;12.18;11.05;;;;;;;25.18;44.71;95097.81;4982218;28;20263;-62
2022/08/10 08:00:36;;;;;;;11.95;10.88;;;;;;;25.30;44.31;95098.59;4984569;28;20330;-63
2022/08/10 08:03:02;;;;;;;10.75;9.88;;;;;;;25.39;44.12;95099.81;4987542;28;20231;-62
2022/08/10 08:05:32;;;;;;;11.40;10.43;;;;;;;25.39;42.90;95101.69;4989553;28;20242;-63
2022/08/10 08:07:59;;;;;;;9.80;8.93;;;;;;;25.33;42.38;95095.41;5001039;28;20198;-64
2022/08/10 08:10:28;;;;;;;11.80;10.35;;;;;;;25.45;42.80;95098.88;5002584;28;20247;-64
2022/08/10 08:12:56;;;;;;;12.00;10.82;;;;;;;25.47;42.84;95104.00;4986749;28;20223;-63
2022/08/10 08:15:23;;;;;;;11.80;10.55;;;;;;;25.53;43.27;95101.16;4992339;28;20235;-64
2022/08/10 08:17:51;;;;;;;11.45;10.35;;;;;;;25.61;42.66;95091.03;4997030;28;20216;-64
2022/08/10 08:20:18;;;;;;;11.00;9.88;;;;;;;25.58;43.22;95088.84;5010574;28;20198;-63
2022/08/10 08:22:45;;;;;;;12.05;10.75;;;;;;;25.68;42.67;95089.00;5004098;28;20257;-64
2022/08/10 08:25:12;;;;;;;11.10;10.20;;;;;;;25.70;42.43;95087.69;5021475;28;20219;-64
2022/08/10 08:27:39;;;;;;;11.23;10.05;;;;;;;25.79;42.81;95090.78;5007168;28;20646;-63
2022/08/10 08:30:07;;;;;;;10.30;9.38;;;;;;;25.83;41.18;95089.25;4999061;28;20286;-66
2022/08/10 08:32:36;;;;;;;8.80;7.97;;;;;;;25.85;41.13;95089.88;5000910;28;20223;-64
2022/08/10 08:35:05;;;;;;;10.45;9.45;;;;;;;25.92;41.59;95079.72;4977474;28;20218;-65
2022/08/10 08:37:32;;;;;;;9.88;8.95;;;;;;;25.94;40.97;95092.97;5002903;28;20246;-63
2022/08/10 08:40:00;;;;;;;10.70;9.70;;;;;;;25.83;41.23;95072.28;5009731;28;21015;-66
2022/08/10 08:42:59;;;;;;;9.65;8.95;;;;;;;25.85;41.45;95079.09;4994819;28;20223;-64
2022/08/10 08:46:02;;;;;;;10.18;9.15;;;;;;;25.88;41.09;95072.41;4982787;28;20436;-65
2022/08/10 08:48:45;;;;;;;9.80;8.93;;;;;;;25.89;41.26;95082.09;4975426;28;20719;-65
2022/08/10 08:51:35;;;;;;;10.05;8.85;;;;;;;26.00;40.59;95083.06;4989011;28;20358;-65
2022/08/10 08:54:37;;;;;;;9.25;8.55;;;;;;;26.17;40.47;95082.00;4981442;28;20235;-65
2022/08/10 08:57:34;;;;;;;8.30;7.57;;;;;;;26.33;39.78;95079.47;4987099;28;20284;-66
2022/08/10 09:00:13;;;;;;;8.68;7.80;;;;;;;26.37;38.82;95084.13;4991119;28;20250;-66
2022/08/10 09:02:46;;;;;;;8.73;7.90;;;;;;;26.35;39.17;95078.19;4987101;28;20262;-66
2022/08/10 09:05:59;;;;;;;9.68;7.55;;;;;;;26.48;38.86;95078.88;4990243;28;20210;-65
2022/08/10 09:08:30;;;;;;;8.57;7.85;;;;;;;26.57;39.00;95072.84;4971590;28;20223;-65
2022/08/10 09:11:17;;;;;;;8.20;7.35;;;;;;;26.73;38.88;95078.41;4987396;28;20282;-67
2022/08/10 09:13:48;;;;;;;8.57;7.15;;;;;;;26.77;37.33;95066.06;4983791;28;20226;-61
2022/08/10 09:16:20;;;;;;;8.05;7.35;;;;;;;26.72;37.44;95060.59;4965384;28;20226;-63
2022/08/10 09:19:23;;;;;;;7.57;6.78;;;;;;;26.78;37.03;95056.91;4994453;28;20228;-62
2022/08/10 09:22:12;;;;;;;7.43;6.50;;;;;;;26.95;36.86;95054.94;4979239;28;20234;-61
2022/08/10 09:25:19;;;;;;;10.05;8.43;;;;;;;27.06;37.90;95059.38;4976782;28;20234;-64
2022/08/10 09:28:14;;;;;;;8.02;7.43;;;;;;;27.13;37.67;95066.44;4984196;28;20234;-63
2022/08/10 09:30:45;;;;;;;8.07;7.30;;;;;;;27.14;36.98;95046.50;4943003;28;20229;-64
2022/08/10 09:33:14;;;;;;;8.25;7.55;;;;;;;27.25;37.01;95049.06;4943074;28;20284;-64
2022/08/10 09:35:59;;;;;;;8.52;7.82;;;;;;;27.46;36.78;95051.97;4944552;28;20229;-64
2022/08/10 09:39:10;;;;;;;9.10;7.85;;;;;;;27.54;36.68;95050.69;4944146;28;20240;-65
2022/08/10 09:41:56;;;;;;;7.50;6.80;;;;;;;27.43;36.56;95047.06;4929442;28;20236;-68
2022/08/10 09:44:55;;;;;;;6.88;6.38;;;;;;;27.74;36.60;95050.00;4940332;28;20305;-63
2022/08/10 09:47:58;;;;;;;7.20;6.53;;;;;;;28.09;34.74;95041.38;4945666;28;20205;-65
2022/08/10 09:50:33;;;;;;;6.47;5.88;;;;;;;28.29;34.87;95040.69;4944458;28;20299;-63
2022/08/10 09:53:15;;;;;;;7.25;5.40;;;;;;;28.37;34.01;95037.47;4947357;28;20216;-64
2022/08/10 09:56:06;;;;;;;5.65;4.93;;;;;;;28.66;34.00;95039.81;4923705;29;20240;-64
2022/08/10 09:58:43;;;;;;;7.50;5.22;;;;;;;28.96;33.69;95045.31;4941020;28;20228;-63
2022/08/10 10:01:17;;;;;;;6.47;5.88;;;;;;;29.22;32.82;95038.09;4944303;28;20246;-64
2022/08/10 10:04:01;;;;;;;4.72;4.18;;;;;;;29.19;32.19;95033.22;4924826;29;20245;-64
2022/08/10 10:06:41;;;;;;;5.85;5.35;;;;;;;29.34;32.07;95040.53;4910584;29;20261;-63
2022/08/10 10:09:29;;;;;;;4.70;4.30;;;;;;;28.89;32.43;95033.91;4985855;28;20223;-64
2022/08/10 10:12:16;;;;;;;5.03;4.63;;;;;;;29.34;32.98;95040.53;4982692;28;20231;-64
2022/08/10 10:18:01;;;;;;;5.32;4.47;;;;;;;29.92;31.91;95034.06;4987836;28;20251;-63
2022/08/10 10:20:51;;;;;;;4.45;3.50;;;;;;;29.87;30.76;95041.09;4994969;28;20265;-64
2022/08/10 10:23:31;;;;;;;4.75;3.95;;;;;;;29.69;30.75;95036.25;4976923;28;20233;-64
2022/08/10 10:26:18;;;;;;;5.00;4.28;;;;;;;29.80;30.83;95032.44;4974870;28;20698;-64
2022/08/10 10:29:20;;;;;;;4.25;3.85;;;;;;;30.21;31.10;95029.69;5001536;28;20342;-63
2022/08/10 10:32:14;;;;;;;4.32;3.92;;;;;;;30.39;30.58;95024.75;4982467;28;20226;-63
2022/08/10 10:34:42;;;;;;;4.43;4.03;;;;;;;30.48;29.91;95017.69;4981058;28;20243;-64
2022/08/10 10:37:10;;;;;;;6.35;4.43;;;;;;;30.02;31.12;95018.59;4983263;28;20715;-62
2022/08/10 10:39:39;;;;;;;5.10;4.25;;;;;;;29.96;31.45;95024.28;4999644;28;20317;-62
2022/08/10 10:42:14;;;;;;;4.90;4.50;;;;;;;29.25;32.62;95025.91;4993694;28;20297;-62
2022/08/10 10:45:13;;;;;;;6.65;4.63;;;;;;;29.21;33.14;95020.19;4974934;28;20226;-62
2022/08/10 10:48:26;;;;;;;4.47;4.10;;;;;;;28.86;33.41;95018.19;4982235;28;20243;-63
2022/08/10 10:51:26;;;;;;;4.50;4.20;;;;;;;29.54;32.93;95011.81;4971304;28;20235;-63
2022/08/10 10:54:37;;;;;;;6.40;5.38;;;;;;;29.95;32.42;95011.84;4972750;28;20228;-63
2022/08/10 10:57:18;;;;;;;5.10;4.63;;;;;;;30.37;31.71;95008.78;4894900;29;20245;-63
2022/08/10 11:00:01;;;;;;;6.43;4.95;;;;;;;30.44;30.77;95003.03;4907596;29;20268;-64
2022/08/10 11:02:50;;;;;;;4.65;4.35;;;;;;;30.41;30.99;95006.31;4892455;29;20213;-63
2022/08/10 11:05:33;;;;;;;4.82;4.38;;;;;;;30.06;32.29;95010.72;4907893;29;20218;-63
2022/08/10 11:08:06;;;;;;;6.25;4.32;;;;;;;30.11;31.77;95011.53;4912835;29;20218;-62
2022/08/10 11:10:54;;;;;;;6.30;5.00;;;;;;;30.32;31.09;95011.50;4909774;29;20282;-67
2022/08/10 11:13:22;;;;;;;4.38;3.97;;;;;;;30.56;30.92;95000.84;4913673;29;20254;-66
2022/08/10 11:16:04;;;;;;;4.63;4.28;;;;;;;30.55;30.22;95005.44;4906548;29;20234;-66
2022/08/10 11:18:32;;;;;;;6.88;4.85;;;;;;;30.81;30.07;95004.53;4907557;29;20263;-65
2022/08/10 11:21:33;;;;;;;4.47;4.07;;;;;;;31.11;29.70;95007.06;4906871;29;20230;-65
2022/08/10 11:24:42;;;;;;;4.43;4.03;;;;;;;31.02;29.32;95013.38;4925227;29;20221;-66
2022/08/10 11:27:14;;;;;;;4.63;4.22;;;;;;;31.53;29.15;95008.44;4913556;29;20221;-66
2022/08/10 11:29:42;;;;;;;7.10;4.15;;;;;;;31.69;28.64;95006.41;4929602;28;20225;-67
2022/08/10 11:32:18;;;;;;;4.20;3.90;;;;;;;31.84;28.22;95008.19;4917489;29;20217;-66
2022/08/10 11:34:57;;;;;;;4.75;4.35;;;;;;;31.93;28.52;95006.47;4984868;28;20255;-67
2022/08/10 11:37:44;;;;;;;6.50;4.00;;;;;;;32.17;27.33;95000.25;4977517;28;20456;-68
2022/08/10 11:40:25;;;;;;;5.07;4.57;;;;;;;31.54;28.43;95001.09;5004427;28;20218;-67
2022/08/10 11:43:12;;;;;;;5.10;4.03;;;;;;;31.88;27.70;94997.53;4996323;28;20230;-65
2022/08/10 11:45:41;;;;;;;5.00;4.30;;;;;;;31.80;28.58;94998.97;5005062;28;20235;-65
2022/08/10 11:48:15;;;;;;;4.47;4.07;;;;;;;32.06;27.88;94992.19;4987217;28;20223;-65
2022/08/10 11:51:04;;;;;;;7.88;4.43;;;;;;;31.80;28.48;94991.59;4985436;28;20274;-67
2022/08/10 11:53:51;;;;;;;7.40;4.53;;;;;;;31.64;28.22;94981.97;4986228;28;21012;-66
2022/08/10 11:56:26;;;;;;;5.38;4.20;;;;;;;31.19;29.39;94982.03;4979651;28;20292;-66
2022/08/10 12:01:39;;;;;;;6.18;4.50;;;;;;;30.50;29.90;94980.22;5003716;28;20311;-66
2022/08/10 12:04:06;;;;;;;5.57;4.38;;;;;;;29.06;32.32;94995.00;5008105;28;20285;-65
2022/08/10 12:06:35;;;;;;;5.60;5.00;;;;;;;28.94;33.26;94993.31;5008320;28;20223;-65
2022/08/10 12:09:03;;;;;;;4.90;4.50;;;;;;;29.37;32.07;94991.22;5005730;28;20374;-69